createdAt,value
2017-05-27T00:02:10.513Z,84.30
2017-05-27T00:04:38.070Z,85.20
2017-05-27T00:07:06.038Z,85.00
2017-05-27T00:09:33.591Z,85.00
2017-05-27T00:12:01.133Z,85.60
2017-05-27T00:14:29.137Z,85.20
2017-05-27T00:16:56.698Z,85.20
2017-05-27T00:19:24.246Z,86.40
2017-05-27T00:21:51.817Z,87.00
2017-05-27T00:24:19.792Z,86.80
2017-05-27T00:26:47.759Z,87.00
2017-05-27T00:29:15.313Z,87.00
2017-05-27T00:31:42.880Z,87.90
2017-05-27T00:34:10.826Z,87.80
2017-05-27T00:36:38.369Z,87.80
2017-05-27T00:39:05.940Z,87.80
2017-05-27T00:41:33.489Z,87.30
2017-05-27T00:44:01.040Z,87.80
2017-05-27T00:46:28.605Z,87.30
2017-05-27T00:48:56.152Z,88.10
2017-05-27T00:51:23.703Z,87.90
2017-05-27T00:53:51.673Z,88.60
2017-05-27T00:56:19.625Z,88.80
2017-05-27T00:58:47.176Z,88.80
2017-05-27T01:01:14.760Z,88.50
2017-05-27T01:03:42.705Z,88.90
2017-05-27T01:06:10.639Z,89.10
2017-05-27T01:08:38.208Z,89.10
2017-05-27T01:11:06.152Z,90.20
2017-05-27T01:13:33.696Z,90.20
2017-05-27T01:16:01.664Z,89.70
2017-05-27T01:18:29.633Z,89.20
2017-05-27T01:20:57.581Z,88.80
2017-05-27T01:23:25.549Z,87.40
2017-05-27T01:25:53.487Z,88.00
2017-05-27T01:28:21.045Z,88.00
2017-05-27T01:30:48.618Z,87.60
2017-05-27T01:33:16.169Z,87.50
2017-05-27T01:35:43.717Z,87.70
2017-05-27T01:38:11.283Z,88.10
2017-05-27T01:40:38.840Z,88.00
2017-05-27T01:43:06.384Z,89.50
2017-05-27T01:45:34.357Z,89.70
2017-05-27T01:48:01.904Z,89.80
2017-05-27T01:50:29.862Z,89.90
2017-05-27T01:52:57.834Z,89.70
2017-05-27T01:55:25.352Z,89.70
2017-05-27T01:57:53.337Z,89.50
2017-05-27T02:00:20.909Z,89.50
2017-05-27T02:02:48.861Z,90.90
2017-05-27T02:05:16.414Z,90.90
2017-05-27T02:07:43.992Z,91.10
2017-05-27T02:10:11.545Z,90.90
2017-05-27T02:12:39.085Z,90.70
2017-05-27T02:15:06.665Z,90.80
2017-05-27T02:17:34.215Z,90.00
2017-05-27T02:20:02.165Z,90.10
2017-05-27T02:22:29.736Z,90.10
2017-05-27T02:24:57.305Z,90.90
2017-05-27T02:27:25.256Z,90.60
2017-05-27T02:29:52.825Z,90.60
2017-05-27T02:32:20.381Z,90.90
2017-05-27T02:34:47.934Z,91.20
2017-05-27T02:37:15.504Z,91.10
2017-05-27T02:39:43.055Z,91.10
2017-05-27T02:42:10.608Z,91.30
2017-05-27T02:44:38.573Z,91.90
2017-05-27T02:47:06.508Z,91.80
2017-05-27T02:49:34.057Z,91.80
2017-05-27T02:52:02.025Z,91.90
2017-05-27T02:54:29.568Z,91.90
2017-05-27T02:56:57.125Z,91.80
2017-05-27T02:59:25.098Z,91.80
2017-05-27T03:01:52.644Z,91.80
2017-05-27T03:04:20.593Z,92.80
2017-05-27T03:06:48.563Z,92.40
2017-05-27T03:09:16.121Z,92.30
2017-05-27T03:11:44.061Z,92.00
2017-05-27T03:14:11.648Z,92.00
2017-05-27T03:16:39.592Z,92.30
2017-05-27T03:19:07.141Z,92.20
2017-05-27T03:21:34.716Z,92.30
2017-05-27T03:24:02.267Z,92.40
2017-05-27T03:26:30.226Z,92.90
2017-05-27T03:28:58.193Z,93.50
2017-05-27T03:31:25.756Z,93.50
2017-05-27T03:33:53.688Z,93.40
2017-05-27T03:36:21.779Z,93.40
2017-05-27T03:38:49.324Z,93.40
2017-05-27T03:41:17.268Z,93.40
2017-05-27T03:43:45.241Z,93.70
2017-05-27T03:46:13.184Z,94.00
2017-05-27T03:48:40.740Z,94.00
2017-05-27T03:51:08.716Z,93.60
2017-05-27T03:53:36.284Z,93.60
2017-05-27T03:56:03.852Z,94.00
2017-05-27T03:58:31.786Z,94.10
2017-05-27T04:00:59.773Z,93.70
2017-05-27T04:03:27.376Z,93.70
2017-05-27T04:05:55.357Z,94.40
2017-05-27T04:08:22.935Z,94.40
2017-05-27T04:10:50.484Z,94.30
2017-05-27T04:13:18.469Z,94.30
2017-05-27T04:15:46.023Z,94.30
2017-05-27T04:18:13.576Z,94.00
2017-05-27T04:20:41.175Z,93.90
2017-05-27T04:23:08.717Z,93.80
2017-05-27T04:25:36.665Z,93.30
2017-05-27T04:28:04.637Z,92.40
2017-05-27T04:30:32.596Z,92.90
2017-05-27T04:33:00.544Z,93.20
2017-05-27T04:35:28.120Z,93.20
2017-05-27T04:37:56.069Z,92.10
2017-05-27T04:40:24.017Z,92.50
2017-05-27T04:42:51.588Z,92.50
2017-05-27T04:45:19.136Z,92.30
2017-05-27T04:47:46.704Z,91.70
2017-05-27T04:50:14.267Z,90.60
2017-05-27T04:52:41.818Z,89.60
2017-05-27T04:55:09.761Z,88.80
2017-05-27T04:57:37.730Z,88.50
2017-05-27T05:00:05.271Z,88.50
2017-05-27T05:02:33.222Z,88.00
2017-05-27T05:05:01.536Z,88.30
2017-05-27T05:07:29.474Z,89.30
2017-05-27T05:09:57.020Z,89.30
2017-05-27T05:12:24.588Z,88.50
2017-05-27T05:14:52.528Z,86.90
2017-05-27T05:17:20.072Z,86.90
2017-05-27T05:19:48.045Z,86.50
2017-05-27T05:22:15.585Z,86.50
2017-05-27T05:24:43.524Z,86.20
2017-05-27T05:27:11.097Z,86.20
2017-05-27T05:29:39.045Z,83.30
2017-05-27T05:32:06.988Z,82.50
2017-05-27T05:34:34.959Z,83.10
2017-05-27T05:37:02.892Z,81.00
2017-05-27T05:39:30.832Z,81.00
2017-05-27T05:41:58.795Z,81.40
2017-05-27T05:44:26.741Z,81.70
2017-05-27T05:46:54.285Z,81.70
2017-05-27T05:49:22.252Z,80.90
2017-05-27T05:51:50.192Z,79.70
2017-05-27T05:54:18.136Z,79.00
2017-05-27T05:56:46.105Z,78.80
2017-05-27T05:59:14.049Z,78.50
2017-05-27T06:01:41.615Z,78.50
2017-05-27T06:04:09.184Z,78.60
2017-05-27T06:06:36.729Z,78.90
2017-05-27T06:09:04.273Z,77.20
2017-05-27T06:11:32.244Z,77.40
2017-05-27T06:13:59.789Z,77.40
2017-05-27T06:16:27.735Z,74.80
2017-05-27T06:18:55.701Z,74.50
2017-05-27T06:21:23.250Z,74.50
2017-05-27T06:23:51.220Z,73.60
2017-05-27T06:26:19.185Z,73.60
2017-05-27T06:28:47.125Z,73.00
2017-05-27T06:31:14.673Z,73.00
2017-05-27T06:33:42.231Z,71.80
2017-05-27T06:36:09.781Z,71.00
2017-05-27T06:38:37.722Z,69.90
2017-05-27T06:41:06.129Z,69.90
2017-05-27T06:43:34.069Z,70.00
2017-05-27T06:46:01.628Z,70.00
2017-05-27T06:48:29.585Z,69.80
2017-05-27T06:50:57.112Z,69.80
2017-05-27T06:53:24.688Z,68.70
2017-05-27T06:55:52.629Z,68.10
2017-05-27T06:58:20.197Z,68.10
2017-05-27T07:00:48.132Z,66.30
2017-05-27T07:03:15.671Z,66.30
2017-05-27T07:05:43.637Z,66.10
2017-05-27T07:08:11.176Z,66.10
2017-05-27T07:10:39.121Z,67.40
2017-05-27T07:13:06.750Z,67.40
2017-05-27T07:15:34.269Z,67.20
2017-05-27T07:18:01.800Z,66.10
2017-05-27T07:20:30.146Z,65.80
2017-05-27T07:22:57.689Z,65.80
2017-05-27T07:25:25.246Z,64.70
2017-05-27T07:27:53.220Z,66.80
2017-05-27T07:30:20.760Z,66.80
2017-05-27T07:32:48.305Z,65.40
2017-05-27T07:35:16.269Z,65.80
2017-05-27T07:37:43.829Z,65.80
2017-05-27T07:40:11.364Z,65.30
2017-05-27T07:42:38.942Z,65.00
2017-05-27T07:45:06.488Z,66.70
2017-05-27T07:47:34.029Z,65.30
2017-05-27T07:50:01.602Z,65.80
2017-05-27T07:52:29.152Z,62.50
2017-05-27T07:54:57.089Z,61.50
2017-05-27T07:57:25.052Z,61.80
2017-05-27T07:59:52.987Z,60.90
2017-05-27T08:02:20.930Z,61.40
2017-05-27T08:04:48.893Z,60.30
2017-05-27T08:07:16.858Z,59.90
2017-05-27T08:09:44.406Z,59.90
2017-05-27T08:12:11.954Z,59.80
2017-05-27T08:14:39.534Z,59.50
2017-05-27T08:17:07.473Z,59.30
2017-05-27T08:19:35.409Z,59.70
2017-05-27T08:22:03.033Z,59.60
2017-05-27T08:24:30.978Z,58.70
2017-05-27T08:26:58.903Z,58.00
2017-05-27T08:29:26.464Z,58.00
2017-05-27T08:31:54.005Z,57.50
2017-05-27T08:34:27.237Z,57.70
2017-05-27T08:36:55.172Z,57.40
2017-05-27T08:39:23.158Z,59.40
2017-05-27T08:41:50.717Z,59.30
2017-05-27T08:44:18.269Z,56.80
2017-05-27T08:46:46.217Z,55.60
2017-05-27T08:49:13.805Z,55.60
2017-05-27T08:51:41.347Z,54.70
2017-05-27T08:54:08.897Z,54.00
2017-05-27T08:56:36.868Z,54.50
2017-05-27T08:59:04.837Z,53.40
2017-05-27T09:01:32.368Z,53.40
2017-05-27T09:04:00.335Z,53.40
2017-05-27T09:06:28.285Z,53.40
2017-05-27T09:08:56.208Z,53.10
2017-05-27T09:11:23.776Z,53.20
2017-05-27T09:13:51.311Z,53.40
2017-05-27T09:16:18.852Z,52.10
2017-05-27T09:18:46.417Z,52.10
2017-05-27T09:21:14.354Z,52.80
2017-05-27T09:23:41.895Z,52.80
2017-05-27T09:26:09.856Z,52.10
2017-05-27T09:28:37.784Z,51.00
2017-05-27T09:31:05.720Z,50.30
2017-05-27T09:33:33.294Z,50.30
2017-05-27T09:36:00.832Z,49.90
2017-05-27T09:38:28.369Z,50.60
2017-05-27T09:40:55.933Z,49.90
2017-05-27T09:43:23.872Z,49.60
2017-05-27T09:45:51.811Z,51.90
2017-05-27T09:48:19.364Z,51.80
2017-05-27T09:50:47.246Z,50.70
2017-05-27T09:53:14.778Z,50.30
2017-05-27T09:55:42.703Z,50.60
2017-05-27T09:58:10.284Z,50.50
2017-05-27T10:00:37.828Z,50.40
2017-05-27T10:03:05.827Z,48.20
2017-05-27T10:05:33.752Z,47.20
2017-05-27T10:08:01.696Z,48.50
2017-05-27T10:10:29.650Z,48.80
2017-05-27T10:12:57.584Z,47.90
2017-05-27T10:15:25.516Z,46.40
2017-05-27T10:17:53.084Z,46.40
2017-05-27T10:20:20.628Z,47.80
2017-05-27T10:22:48.556Z,45.70
2017-05-27T10:25:16.121Z,45.70
2017-05-27T10:27:43.656Z,45.40
2017-05-27T10:30:11.593Z,47.90
2017-05-27T10:32:39.123Z,47.80
2017-05-27T10:35:06.697Z,44.70
2017-05-27T10:37:34.637Z,44.60
2017-05-27T10:40:02.200Z,44.60
2017-05-27T10:42:30.139Z,43.10
2017-05-27T10:44:58.101Z,43.00
2017-05-27T10:47:26.051Z,42.00
2017-05-27T10:49:54.001Z,45.90
2017-05-27T10:52:21.919Z,42.60
2017-05-27T10:54:49.880Z,44.20
2017-05-27T10:57:17.813Z,43.60
2017-05-27T10:59:45.748Z,42.40
2017-05-27T11:02:13.717Z,41.30
2017-05-27T11:04:41.657Z,42.10
2017-05-27T11:07:09.593Z,43.50
2017-05-27T11:09:37.154Z,43.50
2017-05-27T11:12:05.093Z,43.00
2017-05-27T11:14:33.019Z,42.60
2017-05-27T11:17:00.579Z,42.60
2017-05-27T11:19:28.133Z,44.60
2017-05-27T11:21:55.664Z,42.50
2017-05-27T11:24:23.636Z,41.80
2017-05-27T11:26:51.569Z,41.90
2017-05-27T11:29:19.122Z,42.00
2017-05-27T11:31:47.082Z,43.70
2017-05-27T11:34:15.021Z,43.30
2017-05-27T11:36:42.653Z,43.30
2017-05-27T11:39:10.226Z,42.90
2017-05-27T11:41:38.160Z,42.90
2017-05-27T11:44:06.104Z,42.60
2017-05-27T11:46:33.688Z,42.50
2017-05-27T11:49:01.620Z,42.70
2017-05-27T11:51:29.155Z,42.70
2017-05-27T11:53:56.721Z,41.50
2017-05-27T11:56:24.660Z,44.00
2017-05-27T11:58:52.605Z,45.00
2017-05-27T12:01:20.569Z,44.60
2017-05-27T12:03:48.117Z,44.50
2017-05-27T12:06:15.659Z,42.20
2017-05-27T12:08:43.224Z,42.70
2017-05-27T12:11:10.768Z,42.20
2017-05-27T12:13:38.304Z,42.40
2017-05-27T12:16:06.278Z,40.40
2017-05-27T12:18:34.208Z,41.60
2017-05-27T12:21:01.750Z,41.60
2017-05-27T12:23:29.267Z,40.50
2017-05-27T12:25:56.856Z,41.10
2017-05-27T12:28:24.392Z,39.80
2017-05-27T12:30:51.957Z,39.10
2017-05-27T12:33:19.956Z,42.50
2017-05-27T12:35:47.492Z,42.50
2017-05-27T12:38:15.468Z,42.80
2017-05-27T12:40:43.003Z,42.80
2017-05-27T12:43:10.944Z,40.70
2017-05-27T12:45:38.512Z,40.70
2017-05-27T12:48:06.458Z,40.90
2017-05-27T12:50:34.007Z,40.90
2017-05-27T12:53:01.568Z,40.60
2017-05-27T12:55:29.113Z,41.20
2017-05-27T12:57:56.648Z,40.20
2017-05-27T13:00:24.603Z,41.10
2017-05-27T13:02:52.549Z,41.20
2017-05-27T13:05:20.485Z,38.00
2017-05-27T13:07:48.457Z,38.60
2017-05-27T13:10:16.383Z,38.20
2017-05-27T13:12:44.325Z,38.20
2017-05-27T13:15:12.280Z,38.00
2017-05-27T13:17:39.811Z,38.00
2017-05-27T13:20:07.352Z,38.00
2017-05-27T13:22:35.308Z,37.90
2017-05-27T13:25:03.251Z,37.60
2017-05-27T13:27:30.794Z,37.60
2017-05-27T13:29:58.748Z,37.00
2017-05-27T13:32:26.292Z,37.00
2017-05-27T13:34:54.224Z,37.00
2017-05-27T13:37:21.788Z,37.10
2017-05-27T13:39:49.337Z,36.60
2017-05-27T13:42:17.281Z,36.40
2017-05-27T13:44:45.241Z,36.80
2017-05-27T13:47:12.794Z,36.90
2017-05-27T13:49:40.333Z,35.60
2017-05-27T13:52:08.317Z,37.20
2017-05-27T13:54:36.256Z,37.20
2017-05-27T13:57:03.785Z,37.20
2017-05-27T13:59:31.349Z,37.70
2017-05-27T14:01:58.893Z,36.90
2017-05-27T14:04:26.836Z,37.40
2017-05-27T14:06:54.404Z,37.50
2017-05-27T14:09:22.335Z,37.50
2017-05-27T14:11:49.872Z,37.50
2017-05-27T14:14:17.440Z,36.00
2017-05-27T14:16:44.990Z,35.30
2017-05-27T14:19:12.929Z,34.90
2017-05-27T14:21:40.493Z,34.80
2017-05-27T14:24:08.428Z,35.10
2017-05-27T14:26:36.377Z,34.40
2017-05-27T14:29:03.936Z,34.40
2017-05-27T14:31:31.489Z,34.30
2017-05-27T14:33:59.388Z,34.50
2017-05-27T14:36:26.990Z,34.50
2017-05-27T14:38:54.920Z,36.00
2017-05-27T14:41:22.854Z,35.40
2017-05-27T14:43:50.414Z,35.40
2017-05-27T14:46:17.947Z,37.10
2017-05-27T14:48:45.488Z,37.20
2017-05-27T14:51:13.460Z,37.80
2017-05-27T14:53:41.399Z,37.20
2017-05-27T14:56:08.960Z,37.20
2017-05-27T14:58:36.537Z,37.20
2017-05-27T15:01:04.733Z,37.80
2017-05-27T15:03:32.660Z,36.30
2017-05-27T15:06:00.252Z,36.30
2017-05-27T15:08:28.189Z,35.90
2017-05-27T15:10:55.727Z,35.90
2017-05-27T15:13:23.328Z,37.10
2017-05-27T15:15:50.864Z,37.00
2017-05-27T15:18:18.408Z,35.80
2017-05-27T15:20:45.982Z,37.60
2017-05-27T15:23:13.520Z,37.50
2017-05-27T15:25:41.060Z,37.20
2017-05-27T15:28:09.025Z,35.90
2017-05-27T15:30:36.960Z,35.20
2017-05-27T15:33:04.507Z,35.20
2017-05-27T15:35:32.456Z,35.60
2017-05-27T15:38:00.388Z,35.50
2017-05-27T15:40:28.324Z,35.10
2017-05-27T15:42:55.917Z,35.10
2017-05-27T15:45:23.843Z,36.40
2017-05-27T15:47:51.378Z,36.40
2017-05-27T15:50:18.939Z,35.30
2017-05-27T15:52:46.483Z,32.90
2017-05-27T15:55:14.412Z,32.70
2017-05-27T15:57:41.982Z,32.70
2017-05-27T16:00:09.549Z,31.50
2017-05-27T16:02:37.487Z,34.00
2017-05-27T16:05:05.028Z,33.90
2017-05-27T16:07:32.987Z,32.50
2017-05-27T16:10:00.993Z,34.40
2017-05-27T16:12:28.925Z,34.20
2017-05-27T16:14:56.488Z,34.20
2017-05-27T16:17:24.433Z,34.90
2017-05-27T16:19:51.994Z,34.90
2017-05-27T16:22:19.957Z,34.60
2017-05-27T16:24:47.890Z,34.30
2017-05-27T16:27:15.473Z,34.30
2017-05-27T16:29:43.036Z,33.80
2017-05-27T16:32:10.981Z,35.70
2017-05-27T16:34:38.538Z,35.70
2017-05-27T16:37:06.077Z,35.40
2017-05-27T16:39:34.021Z,35.60
2017-05-27T16:42:02.003Z,35.60
2017-05-27T16:44:29.931Z,35.00
2017-05-27T16:46:57.476Z,35.00
2017-05-27T16:49:25.054Z,36.10
2017-05-27T16:51:52.993Z,35.50
2017-05-27T16:54:20.929Z,35.40
2017-05-27T16:56:48.496Z,35.40
2017-05-27T16:59:16.040Z,37.40
2017-05-27T17:01:43.584Z,37.90
2017-05-27T17:04:11.545Z,39.90
2017-05-27T17:06:39.089Z,39.90
2017-05-27T17:09:06.637Z,39.70
2017-05-27T17:11:34.601Z,40.30
2017-05-27T17:14:02.540Z,41.30
2017-05-27T17:16:30.477Z,40.30
2017-05-27T17:18:58.440Z,41.00
2017-05-27T17:21:25.985Z,41.00
2017-05-27T17:23:53.531Z,41.80
2017-05-27T17:26:21.493Z,41.20
2017-05-27T17:28:49.036Z,41.20
2017-05-27T17:31:16.984Z,41.20
2017-05-27T17:33:44.953Z,41.70
2017-05-27T17:36:12.506Z,41.70
2017-05-27T17:38:40.049Z,42.50
2017-05-27T17:41:07.620Z,42.10
2017-05-27T17:43:35.156Z,41.80
2017-05-27T17:46:02.705Z,41.80
2017-05-27T17:48:30.668Z,44.00
2017-05-27T17:50:58.212Z,44.00
2017-05-27T17:53:26.154Z,43.10
2017-05-27T17:55:53.713Z,43.10
2017-05-27T17:58:21.260Z,42.90
2017-05-27T18:00:48.797Z,44.20
2017-05-27T18:03:16.762Z,45.00
2017-05-27T18:05:44.701Z,44.80
2017-05-27T18:08:12.254Z,44.80
2017-05-27T18:10:39.817Z,44.50
2017-05-27T18:13:07.760Z,44.60
2017-05-27T18:15:35.712Z,44.40
2017-05-27T18:18:03.487Z,44.40
2017-05-27T18:20:31.045Z,44.70
2017-05-27T18:22:58.641Z,44.80
2017-05-27T18:25:26.181Z,44.90
2017-05-27T18:27:53.733Z,45.30
2017-05-27T18:30:21.275Z,45.40
2017-05-27T18:32:49.241Z,45.60
2017-05-27T18:35:16.781Z,45.60
2017-05-27T18:37:44.723Z,45.70
2017-05-27T18:40:12.684Z,45.90
2017-05-27T18:42:40.622Z,46.10
2017-05-27T18:45:08.174Z,46.10
2017-05-27T18:47:36.138Z,46.20
2017-05-27T18:50:04.098Z,46.10
2017-05-27T18:52:31.645Z,46.10
2017-05-27T18:54:59.608Z,46.90
2017-05-27T18:57:27.156Z,46.90
2017-05-27T18:59:55.104Z,47.30
2017-05-27T19:02:23.065Z,48.00
2017-05-27T19:04:50.969Z,48.90
2017-05-27T19:07:18.555Z,48.90
2017-05-27T19:09:46.516Z,48.30
2017-05-27T19:12:14.065Z,48.30
2017-05-27T19:14:42.068Z,49.20
2017-05-27T19:17:10.032Z,49.40
2017-05-27T19:19:37.972Z,49.60
2017-05-27T19:22:05.913Z,49.70
2017-05-27T19:24:33.480Z,49.70
2017-05-27T19:27:01.018Z,49.20
2017-05-27T19:29:28.961Z,49.60
2017-05-27T19:31:56.929Z,49.70
2017-05-27T19:34:24.881Z,50.70
2017-05-27T19:36:52.821Z,51.00
2017-05-27T19:39:20.819Z,51.20
2017-05-27T19:41:48.765Z,51.50
2017-05-27T19:44:16.339Z,51.50
2017-05-27T19:46:44.319Z,52.40
2017-05-27T19:49:12.257Z,52.70
2017-05-27T19:51:39.810Z,52.70
2017-05-27T19:54:07.837Z,53.40
2017-05-27T19:56:35.412Z,53.40
2017-05-27T19:59:03.362Z,53.20
2017-05-27T20:01:31.326Z,53.40
2017-05-27T20:03:59.312Z,53.60
2017-05-27T20:06:26.856Z,53.60
2017-05-27T20:08:54.927Z,54.00
2017-05-27T20:11:22.596Z,54.00
2017-05-27T20:13:50.184Z,54.50
2017-05-27T20:16:18.232Z,55.30
2017-05-27T20:18:46.240Z,55.80
2017-05-27T20:21:13.957Z,55.80
2017-05-27T20:23:41.768Z,57.30
2017-05-27T20:26:10.079Z,56.20
2017-05-27T20:28:38.214Z,56.20
2017-05-27T20:31:06.841Z,56.70
2017-05-27T20:33:34.856Z,56.80
2017-05-27T20:36:03.627Z,57.80
2017-05-27T20:38:32.089Z,57.80
2017-05-27T20:41:00.933Z,58.10
2017-05-27T20:43:29.739Z,59.10
2017-05-27T20:45:58.533Z,58.70
2017-05-27T20:48:26.585Z,58.80
2017-05-27T20:50:54.530Z,58.10
2017-05-27T20:53:22.553Z,59.20
2017-05-27T20:55:50.807Z,59.20
2017-05-27T20:58:19.156Z,60.40
2017-05-27T21:00:47.143Z,60.40
2017-05-27T21:03:15.240Z,60.60
2017-05-27T21:05:43.225Z,60.40
2017-05-27T21:08:11.215Z,61.10
2017-05-27T21:10:38.867Z,61.10
2017-05-27T21:13:06.575Z,60.90
2017-05-27T21:15:34.380Z,61.10
2017-05-27T21:18:02.473Z,59.80
2017-05-27T21:20:30.561Z,60.30
2017-05-27T21:22:58.925Z,61.80
2017-05-27T21:25:26.734Z,61.80
2017-05-27T21:27:54.696Z,60.60
2017-05-27T21:30:22.759Z,61.30
2017-05-27T21:32:50.713Z,61.60
2017-05-27T21:35:18.277Z,61.60
2017-05-27T21:37:45.849Z,61.70
2017-05-27T21:40:13.792Z,60.50
2017-05-27T21:42:41.736Z,61.10
2017-05-27T21:45:09.713Z,60.70
2017-05-27T21:47:37.658Z,61.20
2017-05-27T21:50:05.206Z,61.20
2017-05-27T21:52:33.168Z,61.50
2017-05-27T21:55:01.114Z,62.00
2017-05-27T21:57:28.664Z,62.00
2017-05-27T21:59:56.617Z,63.00
2017-05-27T22:02:24.163Z,62.90
2017-05-27T22:04:51.703Z,62.60
2017-05-27T22:07:19.267Z,64.70
2017-05-27T22:09:46.831Z,62.80
2017-05-27T22:12:14.368Z,62.80
2017-05-27T22:14:42.340Z,63.50
2017-05-27T22:17:10.275Z,62.80
2017-05-27T22:19:38.220Z,62.80
2017-05-27T22:22:06.191Z,63.20
2017-05-27T22:24:34.150Z,63.20
2017-05-27T22:27:01.693Z,63.10
2017-05-27T22:29:29.669Z,64.30
2017-05-27T22:31:57.612Z,64.30
2017-05-27T22:34:25.157Z,64.30
2017-05-27T22:36:52.721Z,64.80
2017-05-27T22:39:20.270Z,65.80
2017-05-27T22:41:48.211Z,64.80
2017-05-27T22:44:16.190Z,65.00
2017-05-27T22:46:43.733Z,65.00
2017-05-27T22:49:11.271Z,65.60
2017-05-27T22:51:39.262Z,65.60
2017-05-27T22:54:06.808Z,65.60
2017-05-27T22:56:34.756Z,66.20
2017-05-27T22:59:02.734Z,67.90
2017-05-27T23:01:30.677Z,66.60
2017-05-27T23:03:58.617Z,66.90
2017-05-27T23:06:26.588Z,68.40
2017-05-27T23:08:54.527Z,67.50
2017-05-27T23:11:22.067Z,67.40
2017-05-27T23:13:49.637Z,67.20
2017-05-27T23:16:17.185Z,68.20
2017-05-27T23:18:44.734Z,67.90
2017-05-27T23:21:12.308Z,68.40
2017-05-27T23:23:39.862Z,69.40
2017-05-27T23:26:07.424Z,69.50
2017-05-27T23:28:34.993Z,69.80
2017-05-27T23:31:02.548Z,69.80
2017-05-27T23:33:30.091Z,69.20
2017-05-27T23:35:58.061Z,70.90
2017-05-27T23:38:25.604Z,70.90
2017-05-27T23:40:53.620Z,68.50
2017-05-27T23:43:21.193Z,68.40
2017-05-27T23:45:49.132Z,68.40
2017-05-27T23:48:16.676Z,68.40
2017-05-27T23:50:44.244Z,69.50
2017-05-27T23:53:12.199Z,69.10
2017-05-27T23:55:39.739Z,69.10
2017-05-27T23:58:07.705Z,70.20
